createdAt,value
2019-03-15T00:01:01.403Z,3.35
2019-03-15T00:03:05.130Z,3.22
2019-03-15T00:05:08.808Z,3.20
2019-03-15T00:07:12.463Z,2.70
2019-03-15T00:09:16.007Z,4.62
2019-03-15T00:13:22.480Z,3.12
2019-03-15T00:17:28.888Z,3.42
2019-03-15T00:21:35.287Z,1.95
2019-03-15T00:23:38.910Z,4.95
2019-03-15T00:25:42.456Z,4.10
2019-03-15T00:29:48.816Z,3.87
2019-03-15T00:33:55.291Z,3.83
2019-03-15T00:38:01.628Z,3.52
2019-03-15T00:42:09.519Z,2.87
2019-03-15T00:46:15.919Z,5.03
2019-03-15T00:48:19.478Z,5.40
2019-03-15T00:52:25.916Z,3.87
2019-03-15T00:56:32.293Z,3.47
2019-03-15T00:58:35.880Z,3.90
2019-03-15T01:00:39.647Z,3.15
2019-03-15T01:02:44.365Z,4.37
2019-03-15T01:04:48.137Z,4.60
2019-03-15T01:06:51.687Z,5.60
2019-03-15T01:10:58.091Z,2.75
2019-03-15T01:13:01.657Z,3.10
2019-03-15T01:17:12.606Z,3.25
2019-03-15T01:19:16.166Z,2.55
2019-03-15T01:23:22.872Z,2.77
2019-03-15T01:27:29.223Z,2.42
2019-03-15T01:29:32.791Z,3.10
2019-03-15T01:33:39.191Z,3.47
2019-03-15T01:35:42.762Z,3.77
2019-03-15T01:39:49.120Z,4.25
2019-03-15T01:41:52.682Z,4.58
2019-03-15T01:45:59.056Z,5.08
2019-03-15T01:50:07.964Z,5.30
2019-03-15T01:52:11.620Z,5.10
2019-03-15T01:54:15.302Z,5.75
2019-03-15T01:56:18.825Z,6.22
2019-03-15T02:00:25.396Z,6.95
2019-03-15T02:02:28.983Z,8.85
2019-03-15T02:04:32.535Z,7.40
2019-03-15T02:08:38.903Z,8.33
2019-03-15T02:10:42.459Z,6.83
2019-03-15T02:14:48.827Z,7.45
2019-03-15T02:16:52.435Z,7.55
2019-03-15T02:18:55.989Z,7.37
2019-03-15T02:23:02.573Z,5.92
2019-03-15T02:25:06.789Z,5.17
2019-03-15T02:27:10.376Z,5.67
2019-03-15T02:29:13.938Z,5.67
2019-03-15T02:33:20.299Z,6.35
2019-03-15T02:35:23.939Z,5.53
2019-03-15T02:37:27.528Z,7.30
2019-03-15T02:39:31.183Z,11.60
2019-03-15T02:41:34.778Z,7.60
2019-03-15T02:43:38.328Z,7.95
2019-03-15T02:47:46.309Z,9.03
2019-03-15T02:49:49.925Z,8.48
2019-03-15T02:53:56.357Z,4.30
2019-03-15T02:55:59.911Z,4.60
2019-03-15T03:00:08.303Z,5.65
2019-03-15T03:02:11.940Z,6.15
2019-03-15T03:04:15.504Z,5.20
2019-03-15T03:08:22.048Z,7.05
2019-03-15T03:10:25.625Z,9.70
2019-03-15T03:14:31.981Z,10.45
2019-03-15T03:16:35.545Z,7.67
2019-03-15T03:20:41.944Z,10.65
2019-03-15T03:22:45.500Z,9.13
2019-03-15T03:26:52.054Z,7.87
2019-03-15T03:28:55.650Z,6.67
2019-03-15T03:30:59.267Z,7.25
2019-03-15T03:33:02.808Z,5.70
2019-03-15T03:37:09.727Z,6.87
2019-03-15T03:39:13.273Z,6.20
2019-03-15T03:43:19.811Z,4.50
2019-03-15T03:45:23.618Z,5.72
2019-03-15T03:47:27.203Z,8.80
2019-03-15T03:51:33.635Z,8.90
2019-03-15T03:53:37.242Z,10.45
2019-03-15T03:55:40.778Z,9.65
2019-03-15T03:59:47.275Z,6.75
2019-03-15T04:01:50.912Z,5.92
2019-03-15T04:03:54.663Z,8.25
2019-03-15T04:05:58.212Z,5.50
2019-03-15T04:10:07.901Z,7.05
2019-03-15T04:12:11.442Z,6.85
2019-03-15T04:16:17.865Z,5.17
2019-03-15T04:18:21.476Z,6.35
2019-03-15T04:20:25.049Z,7.30
2019-03-15T04:22:28.614Z,3.85
2019-03-15T04:26:34.985Z,4.12
2019-03-15T04:28:38.547Z,5.42
2019-03-15T04:30:42.139Z,5.60
2019-03-15T04:32:45.737Z,7.00
2019-03-15T04:34:49.291Z,7.35
2019-03-15T04:38:55.687Z,8.98
2019-03-15T04:43:02.041Z,7.00
2019-03-15T04:45:07.636Z,7.55
2019-03-15T04:47:11.233Z,7.53
2019-03-15T04:49:14.781Z,7.03
2019-03-15T04:53:21.147Z,10.32
2019-03-15T04:55:24.699Z,10.18
2019-03-15T04:59:31.072Z,12.00
2019-03-15T05:03:37.456Z,9.98
2019-03-15T05:05:41.931Z,10.05
2019-03-15T05:07:45.495Z,11.12
2019-03-15T05:11:51.872Z,14.90
2019-03-15T05:13:58.554Z,18.40
2019-03-15T05:16:00.636Z,9.53
2019-03-15T05:20:09.055Z,14.33
2019-03-15T05:22:12.607Z,11.65
2019-03-15T05:26:18.983Z,16.52
2019-03-15T05:28:22.563Z,13.78
2019-03-15T05:32:31.015Z,14.20
2019-03-15T05:34:34.139Z,13.88
2019-03-15T05:38:40.479Z,8.30
2019-03-15T05:42:47.101Z,11.57
2019-03-15T05:44:50.664Z,18.98
2019-03-15T05:48:57.054Z,14.73
2019-03-15T05:51:00.609Z,14.15
2019-03-15T05:55:12.252Z,11.45
2019-03-15T05:57:15.858Z,13.72
2019-03-15T05:59:19.460Z,11.15
2019-03-15T06:01:23.020Z,12.05
2019-03-15T06:05:29.498Z,7.80
2019-03-15T06:07:33.127Z,15.50
2019-03-15T06:09:36.748Z,10.50
2019-03-15T06:11:40.318Z,12.43
2019-03-15T06:15:46.727Z,14.38
2019-03-15T06:17:50.392Z,9.35
2019-03-15T06:19:53.928Z,9.33
2019-03-15T06:24:00.308Z,11.22
2019-03-15T06:28:06.668Z,7.60
2019-03-15T06:34:17.167Z,8.98
2019-03-15T06:38:23.536Z,6.70
2019-03-15T06:42:29.843Z,11.93
2019-03-15T06:44:33.412Z,7.25
2019-03-15T06:48:39.799Z,11.48
2019-03-15T06:50:43.359Z,11.57
2019-03-15T06:54:49.787Z,9.50
2019-03-15T06:58:56.215Z,7.90
2019-03-15T07:03:02.599Z,8.50
2019-03-15T07:07:10.455Z,6.70
2019-03-15T07:09:14.180Z,5.83
2019-03-15T07:13:20.626Z,10.48
2019-03-15T07:17:27.091Z,6.75
2019-03-15T07:19:30.874Z,7.25
2019-03-15T07:21:36.860Z,8.70
2019-03-15T07:23:39.817Z,7.92
2019-03-15T07:27:46.197Z,9.33
2019-03-15T07:31:52.559Z,11.40
2019-03-15T07:35:59.592Z,8.53
2019-03-15T07:38:03.420Z,9.85
2019-03-15T07:42:11.640Z,6.85
2019-03-15T07:46:18.068Z,9.13
2019-03-15T07:50:26.123Z,12.15
2019-03-15T07:52:29.692Z,8.20
2019-03-15T07:56:37.735Z,8.15
2019-03-15T08:00:45.496Z,11.85
2019-03-15T08:02:49.087Z,13.53
2019-03-15T08:06:55.515Z,10.55
2019-03-15T08:11:01.881Z,7.12
2019-03-15T08:15:13.019Z,9.50
2019-03-15T08:17:16.576Z,8.70
2019-03-15T08:21:22.972Z,13.32
2019-03-15T08:25:29.319Z,8.68
2019-03-15T08:29:35.699Z,12.25
2019-03-15T08:33:42.043Z,13.38
2019-03-15T08:37:48.872Z,11.65
2019-03-15T08:39:52.393Z,9.05
2019-03-15T08:43:58.828Z,14.30
2019-03-15T08:48:06.860Z,9.75
2019-03-15T08:52:16.450Z,8.20
2019-03-15T08:56:22.808Z,10.28
2019-03-15T09:00:29.220Z,10.85
2019-03-15T09:04:35.607Z,7.85
2019-03-15T09:08:43.610Z,15.15
2019-03-15T09:12:50.360Z,12.23
2019-03-15T09:14:53.946Z,11.95
2019-03-15T09:19:00.324Z,8.40
2019-03-15T09:23:06.688Z,14.90
2019-03-15T09:27:16.332Z,9.38
2019-03-15T09:29:19.923Z,10.00
2019-03-15T09:33:26.307Z,11.73
2019-03-15T09:37:32.684Z,7.20
2019-03-15T09:41:40.144Z,8.35
2019-03-15T09:43:45.368Z,12.85
2019-03-15T09:45:49.306Z,8.05
2019-03-15T09:47:52.892Z,10.48
2019-03-15T09:51:59.253Z,11.95
2019-03-15T09:56:05.633Z,8.95
2019-03-15T10:00:19.069Z,10.28
2019-03-15T10:02:30.342Z,8.83
2019-03-15T10:04:27.833Z,11.73
2019-03-15T10:08:34.194Z,9.90
2019-03-15T10:12:41.833Z,14.93
2019-03-15T10:14:45.427Z,10.32
2019-03-15T10:18:51.828Z,14.10
2019-03-15T10:23:06.036Z,7.37
2019-03-15T10:25:04.283Z,14.03
2019-03-15T10:27:07.931Z,13.83
2019-03-15T10:29:15.655Z,12.00
2019-03-15T10:31:16.817Z,13.85
2019-03-15T10:35:23.219Z,10.20
2019-03-15T10:39:29.589Z,8.93
2019-03-15T10:43:36.026Z,18.23
2019-03-15T10:47:42.877Z,6.58
2019-03-15T10:49:46.578Z,8.63
2019-03-15T10:53:55.061Z,12.58
2019-03-15T10:56:00.456Z,12.30
2019-03-15T10:58:03.386Z,6.97
2019-03-15T11:02:11.561Z,10.58
2019-03-15T11:06:18.075Z,11.30
2019-03-15T11:10:26.140Z,9.03
2019-03-15T11:14:32.515Z,11.75
2019-03-15T11:18:38.911Z,10.43
2019-03-15T11:22:45.281Z,10.55
2019-03-15T11:26:51.621Z,5.80
2019-03-15T11:31:00.604Z,10.30
2019-03-15T11:33:03.201Z,10.40
2019-03-15T11:39:13.923Z,10.48
2019-03-15T11:43:20.321Z,12.23
2019-03-15T11:47:26.839Z,9.03
2019-03-15T11:51:33.174Z,8.45
2019-03-15T11:55:39.716Z,8.70
2019-03-15T11:57:43.277Z,7.60
2019-03-15T12:02:03.174Z,7.92
2019-03-15T12:03:54.843Z,13.03
2019-03-15T12:08:01.254Z,8.08
2019-03-15T12:12:12.394Z,6.10
2019-03-15T12:14:15.963Z,9.95
2019-03-15T12:18:22.337Z,10.32
2019-03-15T12:22:28.721Z,7.10
2019-03-15T12:26:40.116Z,6.53
2019-03-15T12:28:40.296Z,9.40
2019-03-15T12:32:47.039Z,8.13
2019-03-15T12:36:53.441Z,10.10
2019-03-15T12:43:04.401Z,7.40
2019-03-15T12:45:10.334Z,7.80
2019-03-15T12:47:13.895Z,7.55
2019-03-15T12:51:31.573Z,6.87
2019-03-15T12:53:25.469Z,7.83
2019-03-15T12:57:31.915Z,6.22
2019-03-15T13:01:38.288Z,8.38
2019-03-15T13:05:44.699Z,7.28
2019-03-15T13:09:51.075Z,7.83
2019-03-15T13:13:57.525Z,7.20
2019-03-15T13:18:04.272Z,8.73
2019-03-15T13:20:10.949Z,8.65
2019-03-15T13:22:14.537Z,10.60
2019-03-15T13:26:20.894Z,8.98
2019-03-15T13:30:27.339Z,8.63
2019-03-15T13:34:33.699Z,8.98
2019-03-15T13:38:40.072Z,7.37
2019-03-15T13:42:46.606Z,10.10
2019-03-15T13:46:52.973Z,8.40
2019-03-15T13:50:59.369Z,7.87
2019-03-15T13:55:06.183Z,10.35
2019-03-15T13:57:20.462Z,8.50
2019-03-15T13:59:14.984Z,7.45
2019-03-15T14:03:21.398Z,8.73
2019-03-15T14:07:27.735Z,6.03
2019-03-15T14:11:34.145Z,7.85
2019-03-15T14:15:40.526Z,7.33
2019-03-15T14:19:46.879Z,14.90
2019-03-15T14:23:53.302Z,12.95
2019-03-15T20:04:22.168Z,5.75
2019-03-15T20:08:47.015Z,10.18
2019-03-15T20:12:53.567Z,5.53
2019-03-15T20:14:57.218Z,5.12
2019-03-15T20:17:00.783Z,10.88
2019-03-15T20:21:07.293Z,23.85
2019-03-15T20:25:16.976Z,38.28
2019-03-15T20:27:20.546Z,25.77
2019-03-15T20:31:26.993Z,27.02
2019-03-15T20:33:30.750Z,29.87
2019-03-15T20:35:34.318Z,28.45
2019-03-15T20:39:40.926Z,30.52
2019-03-15T20:41:44.688Z,20.75
2019-03-15T20:43:48.486Z,21.85
2019-03-15T20:45:52.062Z,20.08
2019-03-15T20:49:58.419Z,15.35
2019-03-15T20:54:05.158Z,20.72
2019-03-15T20:56:08.781Z,16.80
2019-03-15T20:58:12.383Z,15.50
2019-03-15T21:02:19.580Z,12.47
2019-03-15T21:06:25.949Z,16.30
2019-03-15T21:10:32.469Z,15.13
2019-03-15T21:12:36.019Z,12.25
2019-03-15T21:16:42.816Z,15.48
2019-03-15T21:18:46.462Z,19.15
2019-03-15T21:20:50.211Z,18.07
2019-03-15T21:22:53.990Z,21.05
2019-03-15T21:24:57.623Z,17.52
2019-03-15T21:27:01.184Z,18.02
2019-03-15T21:31:07.721Z,18.25
2019-03-15T21:33:11.367Z,18.20
2019-03-15T21:35:15.051Z,19.05
2019-03-15T21:37:18.789Z,16.23
2019-03-15T21:39:24.207Z,16.40
2019-03-15T21:41:27.552Z,17.17
2019-03-15T21:45:34.688Z,21.82
2019-03-15T21:47:38.457Z,17.35
2019-03-15T21:49:42.111Z,20.10
2019-03-15T21:53:48.515Z,21.30
2019-03-15T21:57:54.892Z,18.40
2019-03-15T22:02:07.048Z,15.60
2019-03-15T22:04:13.464Z,11.80
2019-03-15T22:06:21.041Z,10.93
2019-03-15T22:08:27.681Z,13.18
2019-03-15T22:10:33.531Z,14.10
2019-03-15T22:12:40.185Z,11.22
2019-03-15T22:14:48.015Z,11.12
2019-03-15T22:16:54.295Z,25.50
2019-03-15T22:18:59.967Z,11.22
2019-03-15T22:21:06.018Z,18.15
2019-03-15T22:23:09.601Z,8.73
2019-03-15T22:27:16.024Z,5.75
2019-03-15T22:31:22.813Z,7.53
2019-03-15T22:33:26.340Z,5.55
2019-03-15T22:37:32.892Z,6.45
2019-03-15T22:41:39.243Z,4.70
2019-03-15T22:45:45.621Z,7.80
2019-03-15T22:49:53.734Z,4.62
2019-03-15T22:51:57.298Z,6.28
2019-03-15T22:56:03.761Z,3.77
2019-03-15T22:58:07.472Z,6.35
2019-03-15T23:00:21.012Z,7.60
2019-03-15T23:02:25.586Z,10.43
2019-03-15T23:04:29.273Z,13.00
2019-03-15T23:08:35.733Z,6.00
2019-03-15T23:12:42.157Z,5.72
2019-03-15T23:16:48.528Z,7.53
2019-03-15T23:20:54.905Z,7.33
2019-03-15T23:25:01.256Z,6.80
2019-03-15T23:29:07.748Z,4.95
2019-03-15T23:33:14.189Z,6.53
2019-03-15T23:37:20.643Z,5.17
2019-03-15T23:41:27.012Z,7.00
2019-03-15T23:45:33.375Z,6.75
2019-03-15T23:49:39.755Z,4.53
2019-03-15T23:53:46.122Z,5.20
2019-03-15T23:57:52.499Z,6.05
